Hauptseite
METAR-TAF:

METAR-TAF

Flughäfen :

Flughafen Araxos

Araxos, Griechenland

Breite: 38-09N, Länge: 021-25E, Höhe: 11 m

Beobachtung

Neuester Wetterbericht von vor 36 Minuten, um 11:20 UTC
Wind 9 kt aus Ost/Nordost
Temperatur 17°C
Luftfeuchtigkeit 72%
Luftdruck 1019 hPa
Sichtweite 10 km oder mehr
Aufgelockert bewölkt in der Höhe von 8000 ft

METAR: LGRX 201120Z 06009KT 9999 SCT080 17/12 Q1019

Zeit: 13:56 (11:56 UTC)

Prognose

Neuester Wetterbericht von vor 56 Minuten, um 11:00 UTC
Gültige Prognose vom 20 um 12 UTC bis 20 um 21 UTC
Wind 12 kt aus Nordost
Sichtweite 10 km oder mehr
Leicht bewölkt in der Höhe von 2000 ft
Aufgelockert bewölkt in der Höhe von 8000 ft

TAF: LGRX 201100Z 2012/2021 05012KT 9999 FEW020 SCT080

Wetterbeobachtungen und Prognosen von mehr als 4000 Flughäfen (METAR und TAF Bericht).

Die verfügbaren Stationen werden durch gelbe und rote Markierungen auf der Karte dargestellt.

Führen Sie die Maus auf sie, um den Namen der Station zu sehen.

Darauf klicken, um die Beobachtung von Wetterbeobachtungen und Prognosen zu sehen.

Um die Karte zu ändern : klicken Sie auf den grünen Tasten mit einem schwarzen Kreuz Zum Vergrößern, auf den grünen Button mit einem Gedankenstrich zu verkleinern, oder auf die grünen Pfeile für benachbarte Karten.


METAR-TAF: